Time;durP1;ratioP1;P1;durP2;ratioP2;P2;SDS_P1;SDS_P2;PMS_P1;PMS_P2;Temp;Humidity;BMP_temperature;BMP_pressure;BME280_temperature;BME280_humidity;BME280_pressure;Samples;Min_cycle;Max_cycle;Signal;HPM_P1;HPM_P2
2023/03/21 00:00:12;;;;;;;7.22;4.50;;;10.90;99.90;;;;;;10427019;28;20044;-63
2023/03/21 00:05:13;;;;;;;7.18;4.35;;;10.90;99.90;;;;;;10430401;28;20039;-63
2023/03/21 00:10:14;;;;;;;6.05;4.40;;;10.90;99.90;;;;;;10427937;28;20025;-63
2023/03/21 00:15:17;;;;;;;6.80;4.40;;;10.90;99.90;;;;;;10428750;28;20020;-63
2023/03/21 00:20:17;;;;;;;7.60;4.15;;;10.90;99.90;;;;;;10427381;28;20021;-64
2023/03/21 00:25:18;;;;;;;6.80;3.80;;;10.90;99.90;;;;;;10432087;28;20417;-63
2023/03/21 00:30:19;;;;;;;9.13;4.35;;;10.90;99.90;;;;;;10429629;28;20146;-64
2023/03/21 00:35:20;;;;;;;8.18;4.55;;;10.90;99.90;;;;;;10427068;28;20022;-63
2023/03/21 00:40:20;;;;;;;6.10;4.20;;;10.90;99.90;;;;;;10425127;28;20039;-63
2023/03/21 00:45:21;;;;;;;8.52;4.30;;;10.90;99.90;;;;;;10427765;28;20033;-64
2023/03/21 00:50:22;;;;;;;6.22;4.05;;;10.90;99.90;;;;;;10430025;28;20511;-64
2023/03/21 00:55:22;;;;;;;6.78;4.25;;;10.90;99.90;;;;;;10427604;28;20086;-63
2023/03/21 01:00:23;;;;;;;6.30;4.07;;;10.90;99.90;;;;;;10427391;28;20021;-63
2023/03/21 01:10:48;;;;;;;7.20;4.10;;;10.90;99.90;;;;;;10422984;28;20581;-64
2023/03/21 01:15:54;;;;;;;7.20;4.30;;;11.30;99.90;;;;;;10425778;28;20048;-65
2023/03/21 01:20:57;;;;;;;6.05;3.70;;;10.90;99.90;;;;;;10427530;28;20118;-64
2023/03/21 01:25:58;;;;;;;6.63;4.35;;;10.90;99.90;;;;;;10435094;28;20044;-64
2023/03/21 01:31:01;;;;;;;6.35;4.28;;;10.90;99.90;;;;;;10437952;28;20029;-64
2023/03/21 01:36:03;;;;;;;7.60;4.40;;;10.90;99.90;;;;;;10433975;28;20021;-64
2023/03/21 01:41:03;;;;;;;8.05;4.60;;;10.90;99.90;;;;;;10433563;28;20025;-64
2023/03/21 01:46:19;;;;;;;6.80;4.25;;;10.90;99.90;;;;;;10431011;28;20512;-64
2023/03/21 01:51:22;;;;;;;6.63;4.13;;;11.00;99.90;;;;;;10434884;28;20500;-64
2023/03/21 01:56:27;;;;;;;8.15;4.50;;;10.90;99.90;;;;;;10440895;28;20078;-63
2023/03/21 02:01:30;;;;;;;6.28;3.83;;;10.90;99.90;;;;;;10435127;28;20639;-65
2023/03/21 02:06:37;;;;;;;7.25;4.13;;;10.90;99.90;;;;;;10434336;28;20013;-64
2023/03/21 02:11:38;;;;;;;6.55;4.10;;;10.90;99.90;;;;;;10434243;28;20018;-64
2023/03/21 02:17:08;;;;;;;8.13;4.43;;;10.90;99.90;;;;;;10438442;28;20323;-64
2023/03/21 02:22:31;;;;;;;6.35;4.22;;;10.90;99.90;;;;;;10418774;28;20485;-63
2023/03/21 02:27:39;;;;;;;8.43;4.57;;;10.90;99.90;;;;;;10434863;28;20025;-64
2023/03/21 02:33:01;;;;;;;8.33;4.77;;;10.90;99.90;;;;;;10432659;28;20040;-64
2023/03/21 02:38:31;;;;;;;7.80;4.35;;;10.90;99.90;;;;;;10428360;28;20024;-62
2023/03/21 02:43:42;;;;;;;7.68;4.25;;;10.90;99.90;;;;;;10432703;28;20331;-64
2023/03/21 02:49:14;;;;;;;7.88;4.82;;;10.90;99.90;;;;;;10433370;28;20029;-64
2023/03/21 02:54:19;;;;;;;5.90;3.80;;;10.90;99.90;;;;;;10432187;28;20032;-64
2023/03/21 02:59:22;;;;;;;7.97;4.55;;;10.90;99.90;;;;;;10427668;28;20028;-63
2023/03/21 03:04:26;;;;;;;7.45;3.90;;;10.90;99.90;;;;;;10431087;28;20630;-64
2023/03/21 03:09:38;;;;;;;6.55;3.97;;;10.90;99.90;;;;;;10428113;28;20028;-63
2023/03/21 03:14:52;;;;;;;5.32;3.80;;;10.90;99.90;;;;;;10431203;28;20034;-63
2023/03/21 03:20:23;;;;;;;7.78;4.38;;;10.90;99.90;;;;;;10430857;28;20485;-65
2023/03/21 03:25:38;;;;;;;5.93;3.97;;;10.90;99.90;;;;;;10425698;28;20529;-65
2023/03/21 03:30:39;;;;;;;5.72;3.30;;;10.90;99.90;;;;;;10432929;28;20083;-63
2023/03/21 03:35:40;;;;;;;5.68;3.90;;;10.90;99.90;;;;;;10434938;28;20047;-63
2023/03/21 03:40:51;;;;;;;6.88;4.03;;;10.90;99.90;;;;;;10431420;28;20024;-64
2023/03/21 03:45:58;;;;;;;6.45;3.60;;;10.90;99.90;;;;;;10425498;28;20049;-65
2023/03/21 03:51:20;;;;;;;5.90;3.65;;;10.90;99.90;;;;;;10435827;28;20063;-64
2023/03/21 03:56:21;;;;;;;4.88;2.83;;;10.90;99.90;;;;;;10430466;28;20052;-63
2023/03/21 04:01:22;;;;;;;5.90;4.13;;;10.90;99.90;;;;;;10430537;28;20052;-64
2023/03/21 04:06:23;;;;;;;6.82;3.67;;;10.90;99.90;;;;;;10429065;28;20025;-63
2023/03/21 04:11:23;;;;;;;7.10;3.55;;;10.90;99.90;;;;;;10424694;28;20112;-63
2023/03/21 04:16:24;;;;;;;5.63;3.53;;;10.90;99.90;;;;;;10427182;28;20456;-62
2023/03/21 04:21:26;;;;;;;5.68;3.60;;;10.90;99.90;;;;;;10422698;28;20040;-63
2023/03/21 04:26:31;;;;;;;4.50;3.25;;;10.90;99.90;;;;;;10422853;28;20045;-64
2023/03/21 04:31:33;;;;;;;4.70;3.00;;;10.90;99.90;;;;;;10428479;28;20491;-64
2023/03/21 04:36:37;;;;;;;6.40;3.85;;;10.90;99.90;;;;;;10431343;28;20495;-62
2023/03/21 04:41:40;;;;;;;5.65;3.97;;;10.90;99.90;;;;;;10431377;28;20420;-62
2023/03/21 04:46:41;;;;;;;5.35;3.20;;;10.90;99.90;;;;;;10424165;28;20026;-64
2023/03/21 04:51:44;;;;;;;5.68;3.88;;;10.90;99.90;;;;;;10428644;28;20033;-64
2023/03/21 04:56:44;;;;;;;5.13;3.47;;;10.90;99.90;;;;;;10428432;28;20509;-64
2023/03/21 05:01:48;;;;;;;6.40;3.15;;;10.90;99.90;;;;;;10432989;28;20622;-64
2023/03/21 05:06:49;;;;;;;6.03;3.70;;;10.90;99.90;;;;;;10437836;28;20037;-63
2023/03/21 05:11:50;;;;;;;6.18;3.67;;;10.90;99.90;;;;;;10433026;28;20021;-64
2023/03/21 05:16:52;;;;;;;6.32;4.07;;;10.90;99.90;;;;;;10442378;28;20018;-63
2023/03/21 05:21:52;;;;;;;7.60;4.03;;;10.90;99.90;;;;;;10434592;28;20025;-64
2023/03/21 05:26:54;;;;;;;6.20;4.22;;;10.90;99.90;;;;;;10434651;28;20392;-64
2023/03/21 05:31:56;;;;;;;7.15;4.28;;;10.90;99.90;;;;;;10437035;28;20059;-63
2023/03/21 05:36:57;;;;;;;7.30;4.30;;;10.90;99.90;;;;;;10435942;28;20680;-63
2023/03/21 05:41:58;;;;;;;6.72;4.13;;;10.90;99.90;;;;;;10431237;28;20087;-63
2023/03/21 05:46:58;;;;;;;6.72;4.05;;;10.90;99.90;;;;;;10433491;28;20020;-64
2023/03/21 05:51:59;;;;;;;7.78;4.80;;;10.90;99.90;;;;;;10439089;28;20099;-63
2023/03/21 05:57:00;;;;;;;7.75;4.65;;;10.90;99.90;;;;;;10432844;28;20053;-63
2023/03/21 06:02:00;;;;;;;7.45;4.20;;;10.90;99.90;;;;;;10433800;28;20053;-63
2023/03/21 06:07:01;;;;;;;7.78;4.65;;;10.90;99.90;;;;;;10430590;28;20041;-64
2023/03/21 06:12:02;;;;;;;8.57;5.10;;;10.90;99.90;;;;;;10431586;28;20143;-64
2023/03/21 06:17:02;;;;;;;8.40;4.82;;;10.90;99.90;;;;;;10433620;28;20021;-64
2023/03/21 06:22:03;;;;;;;8.43;4.88;;;10.90;99.90;;;;;;10435894;28;20523;-65
2023/03/21 06:27:05;;;;;;;9.15;5.07;;;10.90;99.90;;;;;;10439190;28;20021;-63
2023/03/21 06:32:06;;;;;;;9.70;5.25;;;10.90;99.90;;;;;;10434044;28;20041;-64
2023/03/21 06:37:07;;;;;;;8.55;4.63;;;10.90;99.90;;;;;;10433605;28;20265;-63
2023/03/21 06:42:07;;;;;;;8.90;5.35;;;10.90;99.90;;;;;;10436779;28;20025;-63
2023/03/21 06:47:08;;;;;;;8.05;4.72;;;11.00;99.90;;;;;;10438402;28;20037;-64
2023/03/21 06:52:09;;;;;;;10.60;4.93;;;11.00;99.90;;;;;;10438537;28;20067;-64
2023/03/21 06:57:10;;;;;;;8.68;4.88;;;10.90;99.90;;;;;;10420835;28;20201;-65
2023/03/21 07:02:11;;;;;;;8.18;4.50;;;10.90;99.90;;;;;;10423957;28;20027;-64
2023/03/21 07:07:11;;;;;;;8.75;4.53;;;10.90;99.90;;;;;;10439610;28;20029;-64
2023/03/21 07:12:12;;;;;;;7.85;4.72;;;10.90;99.90;;;;;;10436368;28;20232;-62
2023/03/21 07:17:12;;;;;;;8.88;5.18;;;10.90;99.90;;;;;;10433695;28;20029;-62
2023/03/21 07:22:13;;;;;;;8.90;4.97;;;10.90;99.90;;;;;;10429790;28;20033;-63
2023/03/21 07:27:15;;;;;;;10.13;5.13;;;11.00;99.90;;;;;;10435144;28;20052;-65
2023/03/21 07:32:15;;;;;;;8.77;5.05;;;11.00;99.90;;;;;;10427096;28;20032;-64
2023/03/21 07:37:16;;;;;;;10.90;6.05;;;11.00;99.90;;;;;;10431018;28;20039;-67
2023/03/21 07:42:17;;;;;;;9.90;5.65;;;11.00;99.90;;;;;;10435724;28;20039;-64
2023/03/21 07:47:25;;;;;;;9.80;5.50;;;11.00;99.90;;;;;;10434997;28;20029;-64
2023/03/21 07:52:26;;;;;;;17.83;5.43;;;11.00;99.90;;;;;;10435559;28;20021;-65
2023/03/21 07:57:26;;;;;;;9.27;4.60;;;11.00;99.90;;;;;;10431822;28;20029;-64
2023/03/21 08:02:27;;;;;;;9.70;5.20;;;11.00;99.90;;;;;;10435978;28;20094;-64
2023/03/21 08:07:28;;;;;;;8.52;4.80;;;11.00;99.90;;;;;;10434287;28;20110;-64
2023/03/21 08:12:29;;;;;;;9.07;5.30;;;11.00;99.90;;;;;;10429817;28;20021;-64
2023/03/21 08:17:29;;;;;;;9.70;5.22;;;11.00;99.90;;;;;;10431840;28;20051;-64
2023/03/21 08:22:30;;;;;;;10.65;5.65;;;11.00;99.90;;;;;;10436211;28;20029;-61
2023/03/21 08:27:31;;;;;;;8.73;4.95;;;11.00;99.90;;;;;;10436291;28;20448;-64
2023/03/21 08:32:32;;;;;;;8.27;4.93;;;11.00;99.90;;;;;;10437834;28;20536;-64
2023/03/21 08:37:33;;;;;;;10.63;5.90;;;11.00;99.90;;;;;;10434526;28;20028;-62
2023/03/21 08:42:34;;;;;;;9.85;5.47;;;11.00;99.90;;;;;;10442775;28;20040;-64
2023/03/21 08:47:35;;;;;;;9.93;5.80;;;11.00;99.90;;;;;;10433732;28;20295;-64
2023/03/21 08:52:36;;;;;;;9.50;5.30;;;11.10;99.90;;;;;;10441209;28;20163;-65
2023/03/21 08:57:37;;;;;;;10.13;5.57;;;11.00;99.90;;;;;;10433637;28;20296;-64
2023/03/21 09:02:38;;;;;;;9.00;5.53;;;11.00;99.90;;;;;;10441062;28;20024;-65
2023/03/21 09:07:40;;;;;;;13.95;5.57;;;11.00;99.90;;;;;;10435081;28;20047;-63
2023/03/21 09:12:41;;;;;;;8.93;5.68;;;11.00;99.90;;;;;;10435350;28;20031;-63
2023/03/21 09:17:42;;;;;;;11.85;5.72;;;11.10;99.90;;;;;;10439435;28;20049;-64
2023/03/21 09:22:48;;;;;;;11.20;5.72;;;11.10;99.90;;;;;;10433146;28;20044;-64
2023/03/21 09:27:50;;;;;;;10.50;5.43;;;11.10;99.90;;;;;;10438663;28;20505;-65
2023/03/21 09:32:52;;;;;;;11.10;6.05;;;11.10;99.90;;;;;;10432085;28;20072;-65
2023/03/21 09:37:53;;;;;;;10.85;5.85;;;11.10;99.90;;;;;;10439421;28;20033;-64
2023/03/21 09:43:00;;;;;;;13.18;5.50;;;11.10;99.90;;;;;;10432320;28;20022;-64
2023/03/21 09:48:01;;;;;;;10.38;5.22;;;11.10;99.90;;;;;;10436987;28;20463;-63
2023/03/21 09:53:15;;;;;;;13.00;6.18;;;11.20;99.90;;;;;;10439423;28;20251;-65
2023/03/21 09:58:16;;;;;;;11.02;5.22;;;11.20;99.90;;;;;;10436436;28;20036;-62
2023/03/21 10:03:24;;;;;;;9.32;5.55;;;11.20;99.90;;;;;;10439971;28;20032;-65
2023/03/21 10:08:29;;;;;;;12.50;5.55;;;11.20;99.90;;;;;;10437924;28;20077;-64
2023/03/21 10:13:33;;;;;;;14.57;5.88;;;11.20;99.90;;;;;;10426310;28;20017;-62
2023/03/21 10:18:36;;;;;;;11.00;5.45;;;11.20;99.90;;;;;;10437155;28;20036;-65
2023/03/21 10:23:37;;;;;;;13.88;5.35;;;11.20;99.90;;;;;;10418487;28;20226;-64
2023/03/21 10:28:40;;;;;;;11.18;5.40;;;11.30;99.90;;;;;;10427340;28;20098;-64
2023/03/21 10:33:44;;;;;;;10.68;5.47;;;11.30;99.90;;;;;;10427753;28;20052;-63
2023/03/21 10:39:01;;;;;;;12.38;5.65;;;11.30;99.90;;;;;;10425755;28;20238;-65
2023/03/21 10:44:17;;;;;;;13.27;6.22;;;11.40;99.90;;;;;;10425288;28;20444;-64
2023/03/21 10:49:20;;;;;;;11.93;5.63;;;11.40;99.90;;;;;;10420843;28;20037;-64
2023/03/21 10:54:25;;;;;;;11.43;5.78;;;11.40;99.90;;;;;;10430410;28;20052;-65
2023/03/21 10:59:28;;;;;;;14.25;6.47;;;11.50;99.90;;;;;;10422777;28;20033;-63
2023/03/21 11:04:29;;;;;;;13.48;6.15;;;11.50;99.90;;;;;;10431146;28;20036;-65
2023/03/21 11:10:11;;;;;;;15.00;5.63;;;11.60;99.90;;;;;;10433329;28;20481;-64
2023/03/21 11:15:29;;;;;;;11.57;5.53;;;12.50;99.90;;;;;;10418981;28;20063;-63
2023/03/21 11:20:47;;;;;;;11.52;5.18;;;11.70;99.90;;;;;;10431449;28;20087;-64
2023/03/21 11:25:49;;;;;;;9.00;5.05;;;11.70;99.90;;;;;;10433525;28;20032;-64
2023/03/21 11:30:56;;;;;;;11.50;5.38;;;11.70;99.90;;;;;;10426058;28;20489;-65
2023/03/21 11:35:59;;;;;;;8.73;4.80;;;11.70;99.90;;;;;;10432983;28;20079;-63
2023/03/21 11:41:01;;;;;;;8.75;4.82;;;11.70;99.90;;;;;;10435279;28;20041;-65
2023/03/21 11:46:08;;;;;;;8.73;5.00;;;11.80;99.90;;;;;;10432634;28;20539;-64
2023/03/21 11:51:27;;;;;;;10.20;4.85;;;11.80;99.90;;;;;;10427588;28;20555;-65
2023/03/21 11:56:43;;;;;;;9.32;4.82;;;11.80;99.90;;;;;;10435175;28;20097;-65
2023/03/21 12:02:08;;;;;;;10.15;4.72;;;11.90;99.90;;;;;;10431016;28;20054;-64
2023/03/21 12:07:35;;;;;;;13.50;4.65;;;11.90;99.90;;;;;;10437158;28;20148;-64
2023/03/21 12:12:55;;;;;;;9.15;4.50;;;11.80;99.90;;;;;;10395670;28;20026;-63
2023/03/21 12:17:55;;;;;;;8.15;4.25;;;11.80;99.90;;;;;;10434443;28;20408;-64
2023/03/21 12:23:18;;;;;;;9.48;4.13;;;11.80;99.90;;;;;;10427335;28;20036;-64
2023/03/21 12:28:27;;;;;;;7.65;4.55;;;11.80;99.90;;;;;;10430461;28;20033;-63
2023/03/21 12:33:38;;;;;;;8.27;4.47;;;11.70;99.90;;;;;;10428734;28;20023;-64
2023/03/21 12:38:46;;;;;;;9.85;4.78;;;11.70;99.90;;;;;;10434916;28;20388;-65
2023/03/21 12:43:47;;;;;;;8.90;4.32;;;11.70;99.90;;;;;;10425894;28;20619;-64
2023/03/21 12:49:12;;;;;;;10.38;4.40;;;11.80;99.90;;;;;;10426958;28;20090;-63
2023/03/21 12:54:20;;;;;;;6.65;3.88;;;11.90;99.90;;;;;;10431336;28;20029;-64
2023/03/21 12:59:30;;;;;;;8.83;4.20;;;11.90;99.90;;;;;;10430108;28;20053;-64
2023/03/21 13:04:40;;;;;;;8.13;4.30;;;11.90;99.90;;;;;;10424000;28;20584;-63
2023/03/21 13:09:41;;;;;;;9.88;3.83;;;11.90;99.90;;;;;;10425364;28;20051;-65
2023/03/21 13:15:06;;;;;;;6.32;3.80;;;11.90;99.90;;;;;;10428990;28;20040;-65
2023/03/21 13:20:29;;;;;;;7.35;4.70;;;12.00;99.90;;;;;;10394855;28;20040;-64
2023/03/21 13:25:32;;;;;;;8.07;3.97;;;12.00;99.90;;;;;;10435972;28;20029;-64
2023/03/21 13:30:32;;;;;;;8.43;4.15;;;12.00;99.90;;;;;;10439348;28;20033;-64
2023/03/21 13:35:39;;;;;;;6.95;4.25;;;12.10;99.90;;;;;;10438040;28;20091;-65
2023/03/21 13:41:04;;;;;;;11.98;4.35;;;12.00;99.90;;;;;;10437454;28;20045;-64
2023/03/21 13:46:23;;;;;;;7.13;4.03;;;12.10;99.90;;;;;;10432596;28;20049;-64
2023/03/21 13:51:36;;;;;;;9.52;4.32;;;12.20;99.90;;;;;;10436284;28;20440;-64
2023/03/21 13:56:45;;;;;;;7.03;3.88;;;12.30;99.90;;;;;;10430334;28;20025;-64
2023/03/21 14:02:25;;;;;;;7.97;4.20;;;12.40;99.90;;;;;;10437480;28;20061;-65
2023/03/21 14:07:27;;;;;;;6.55;3.72;;;12.50;99.90;;;;;;10435742;28;20497;-64
2023/03/21 14:12:35;;;;;;;8.38;4.00;;;12.50;99.90;;;;;;10433907;28;20033;-65
2023/03/21 14:17:36;;;;;;;7.90;4.53;;;12.50;99.90;;;;;;10430705;28;20116;-63
2023/03/21 14:22:38;;;;;;;8.73;4.47;;;12.50;99.90;;;;;;10436596;28;20884;-63
2023/03/21 14:27:46;;;;;;;8.48;4.60;;;12.50;99.90;;;;;;10431329;28;20554;-63
2023/03/21 14:32:47;;;;;;;8.03;4.33;;;12.50;99.90;;;;;;10439294;28;20095;-63
2023/03/21 14:37:49;;;;;;;7.90;4.07;;;12.50;99.90;;;;;;10429978;28;20028;-64
2023/03/21 14:42:51;;;;;;;7.57;5.05;;;12.50;99.90;;;;;;10429429;28;21393;-62
2023/03/21 14:48:00;;;;;;;5.88;4.07;;;12.50;99.90;;;;;;10424523;28;20021;-63
2023/03/21 14:53:01;;;;;;;5.65;4.00;;;12.60;99.90;;;;;;10434224;28;20348;-64
2023/03/21 14:58:02;;;;;;;9.27;4.47;;;12.50;99.90;;;;;;10435501;28;20205;-65
2023/03/21 15:03:03;;;;;;;7.05;4.10;;;12.50;99.90;;;;;;10432560;28;20033;-64
2023/03/21 15:08:11;;;;;;;6.32;4.22;;;12.50;99.90;;;;;;10435284;28;20025;-65
2023/03/21 15:13:15;;;;;;;7.10;4.50;;;12.40;99.90;;;;;;10431646;28;20055;-66
2023/03/21 15:18:28;;;;;;;10.00;5.22;;;12.40;99.90;;;;;;10441007;28;20266;-65
2023/03/21 15:23:51;;;;;;;6.40;4.38;;;12.40;99.90;;;;;;10437948;28;20032;-65
2023/03/21 15:28:57;;;;;;;10.05;4.90;;;12.40;99.90;;;;;;10427274;28;20043;-65
2023/03/21 15:33:58;;;;;;;11.43;5.53;;;12.40;99.90;;;;;;10434548;28;20044;-66
2023/03/21 15:39:05;;;;;;;8.57;4.65;;;12.40;99.90;;;;;;10430230;28;20029;-65
2023/03/21 15:44:08;;;;;;;10.02;4.95;;;12.40;99.90;;;;;;10425681;28;20040;-65
2023/03/21 15:49:11;;;;;;;10.43;5.10;;;12.40;99.90;;;;;;10437545;28;20580;-63
2023/03/21 15:54:27;;;;;;;10.38;5.18;;;12.40;99.90;;;;;;10430920;28;20441;-64
2023/03/21 15:59:33;;;;;;;8.73;4.50;;;12.40;99.90;;;;;;10430611;28;20450;-63
2023/03/21 16:04:54;;;;;;;10.13;4.80;;;12.40;99.90;;;;;;10431519;28;20155;-64
2023/03/21 16:10:01;;;;;;;8.80;5.03;;;12.40;99.90;;;;;;10427185;28;20033;-65
2023/03/21 16:15:01;;;;;;;7.55;4.30;;;12.40;99.90;;;;;;10425499;28;20036;-64
2023/03/21 16:20:12;;;;;;;8.55;5.28;;;12.30;99.90;;;;;;10427574;28;20028;-66
2023/03/21 16:25:13;;;;;;;7.40;4.63;;;12.40;99.90;;;;;;10421038;28;20029;-64
2023/03/21 16:30:17;;;;;;;8.77;4.68;;;12.40;99.90;;;;;;10431296;28;20079;-63
2023/03/21 16:35:19;;;;;;;7.63;4.97;;;12.30;99.90;;;;;;10430978;28;20013;-65
2023/03/21 16:40:20;;;;;;;8.73;5.53;;;12.40;99.90;;;;;;10427408;28;20047;-65
2023/03/21 16:45:22;;;;;;;10.00;5.32;;;12.30;99.90;;;;;;10425563;28;20170;-67
2023/03/21 16:50:25;;;;;;;12.32;6.63;;;12.40;99.90;;;;;;10433702;28;20643;-67
2023/03/21 16:55:27;;;;;;;13.25;5.97;;;12.30;99.90;;;;;;10434321;28;20394;-64
2023/03/21 17:00:29;;;;;;;10.30;5.70;;;12.30;99.90;;;;;;10435031;28;20061;-64
2023/03/21 17:05:30;;;;;;;11.73;6.70;;;12.30;99.90;;;;;;10435469;28;20427;-64
2023/03/21 17:10:32;;;;;;;11.55;6.32;;;12.20;99.90;;;;;;10438753;28;20025;-65
2023/03/21 17:15:32;;;;;;;15.38;6.50;;;12.20;99.90;;;;;;10434096;28;20037;-65
2023/03/21 17:20:36;;;;;;;10.90;6.47;;;12.20;99.90;;;;;;10435133;28;20024;-62
2023/03/21 17:25:36;;;;;;;13.15;6.50;;;12.20;99.90;;;;;;10430012;28;20112;-63
2023/03/21 17:30:38;;;;;;;11.02;6.40;;;12.20;99.90;;;;;;10439231;28;20496;-65
2023/03/21 17:35:38;;;;;;;11.35;5.93;;;12.20;99.90;;;;;;10434564;28;20100;-63
2023/03/21 17:40:39;;;;;;;9.77;5.90;;;12.20;99.90;;;;;;10430842;28;20025;-65
2023/03/21 17:45:40;;;;;;;9.90;6.10;;;12.20;99.90;;;;;;10433430;28;20063;-65
2023/03/21 17:50:40;;;;;;;9.70;5.72;;;12.20;99.90;;;;;;10426465;28;20029;-64
2023/03/21 17:55:41;;;;;;;8.30;5.40;;;12.20;99.90;;;;;;10430734;28;20420;-64
2023/03/21 18:00:41;;;;;;;8.57;5.95;;;12.20;99.90;;;;;;10429174;28;20028;-64
2023/03/21 18:05:42;;;;;;;11.25;6.13;;;12.10;99.90;;;;;;10435047;28;20544;-64
2023/03/21 18:10:43;;;;;;;8.57;5.53;;;12.10;99.90;;;;;;10429539;28;20033;-72
2023/03/21 18:15:43;;;;;;;9.02;5.18;;;12.10;99.90;;;;;;10428901;28;20400;-65
2023/03/21 18:20:44;;;;;;;9.68;5.75;;;12.20;99.90;;;;;;10432559;28;20048;-63
2023/03/21 18:25:45;;;;;;;8.75;6.13;;;12.10;99.90;;;;;;10431949;28;20045;-63
2023/03/21 18:30:47;;;;;;;10.50;6.25;;;12.10;99.90;;;;;;10433382;28;20248;-64
2023/03/21 18:35:49;;;;;;;9.15;5.80;;;12.10;99.90;;;;;;10432332;28;20481;-63
2023/03/21 18:40:49;;;;;;;10.50;5.85;;;12.10;99.90;;;;;;10427322;28;20036;-64
2023/03/21 18:45:50;;;;;;;11.10;5.88;;;12.10;99.90;;;;;;10430293;28;20304;-64
2023/03/21 18:50:51;;;;;;;10.35;6.30;;;12.10;99.90;;;;;;10426159;28;20029;-65
2023/03/21 18:55:51;;;;;;;9.25;5.50;;;12.10;99.90;;;;;;10434833;28;20459;-65
2023/03/21 19:00:52;;;;;;;10.30;6.15;;;12.00;99.90;;;;;;10412408;28;20033;-64
2023/03/21 19:05:58;;;;;;;9.13;6.03;;;12.00;99.90;;;;;;10429018;28;20045;-65
2023/03/21 19:10:58;;;;;;;9.90;5.93;;;12.00;99.90;;;;;;10430584;28;20020;-63
2023/03/21 19:16:00;;;;;;;9.13;5.70;;;12.00;99.90;;;;;;10432091;28;20025;-64
2023/03/21 19:21:01;;;;;;;10.30;6.22;;;12.00;99.90;;;;;;10435892;28;20033;-63
2023/03/21 19:26:02;;;;;;;8.15;5.35;;;12.00;99.90;;;;;;10433506;28;20029;-63
2023/03/21 19:31:07;;;;;;;8.32;5.63;;;11.90;99.90;;;;;;10432622;28;20503;-63
2023/03/21 19:36:08;;;;;;;11.48;6.03;;;12.00;99.90;;;;;;10432246;28;20365;-64
2023/03/21 19:41:09;;;;;;;7.55;5.22;;;11.90;99.90;;;;;;10432691;28;20033;-64
2023/03/21 19:46:13;;;;;;;11.27;7.15;;;11.90;99.90;;;;;;10435407;28;20503;-64
2023/03/21 19:51:14;;;;;;;10.57;6.50;;;11.90;99.90;;;;;;10436480;28;20100;-64
2023/03/21 19:56:15;;;;;;;8.95;5.68;;;11.90;99.90;;;;;;10430138;28;20082;-64
2023/03/21 20:01:16;;;;;;;8.85;5.78;;;11.90;99.90;;;;;;10428677;28;20639;-65
2023/03/21 20:06:17;;;;;;;11.20;5.70;;;11.90;99.90;;;;;;10429561;28;20036;-64
2023/03/21 20:11:18;;;;;;;9.80;5.60;;;11.90;99.90;;;;;;10423988;28;20031;-65
2023/03/21 20:16:19;;;;;;;8.63;5.05;;;11.80;99.90;;;;;;10427569;28;20041;-65
2023/03/21 20:21:20;;;;;;;8.90;5.10;;;11.80;99.90;;;;;;10422075;28;20116;-64
2023/03/21 20:26:21;;;;;;;8.13;5.45;;;11.80;99.90;;;;;;10426639;28;20042;-65
2023/03/21 20:31:23;;;;;;;8.90;5.30;;;11.80;99.90;;;;;;10427127;28;20026;-64
2023/03/21 20:36:23;;;;;;;8.20;4.63;;;11.80;99.90;;;;;;10425723;28;20382;-63
2023/03/21 20:41:24;;;;;;;8.27;5.32;;;11.80;99.90;;;;;;10429654;28;20286;-64
2023/03/21 20:46:25;;;;;;;7.68;5.13;;;11.70;99.90;;;;;;10422498;28;20128;-63
2023/03/21 20:51:26;;;;;;;7.25;5.00;;;11.80;99.90;;;;;;10426038;28;20033;-65
2023/03/21 20:56:29;;;;;;;9.05;5.05;;;11.70;99.90;;;;;;10429952;28;20227;-65
2023/03/21 21:01:30;;;;;;;9.15;5.10;;;11.70;99.90;;;;;;10426496;28;20027;-64
2023/03/21 21:06:30;;;;;;;9.30;5.85;;;11.70;99.90;;;;;;10430607;28;20029;-64
2023/03/21 21:11:31;;;;;;;8.13;5.15;;;11.70;99.90;;;;;;10422788;28;20481;-63
2023/03/21 21:16:32;;;;;;;8.02;5.50;;;11.70;99.90;;;;;;10429149;28;20017;-63
2023/03/21 21:21:33;;;;;;;8.00;5.25;;;11.70;99.90;;;;;;10420044;28;20032;-64
2023/03/21 21:26:34;;;;;;;8.85;5.45;;;11.60;99.90;;;;;;10425358;28;20034;-63
2023/03/21 21:31:36;;;;;;;8.25;5.35;;;11.60;99.90;;;;;;10418509;28;20610;-63
2023/03/21 21:36:36;;;;;;;10.35;5.57;;;11.60;99.90;;;;;;10430028;28;20393;-65
2023/03/21 21:41:37;;;;;;;11.10;6.13;;;11.60;99.90;;;;;;10431410;28;20034;-64
2023/03/21 21:46:38;;;;;;;10.55;6.50;;;11.60;99.90;;;;;;10437067;28;20316;-65
2023/03/21 21:51:40;;;;;;;8.02;4.95;;;11.60;99.90;;;;;;10437663;28;20059;-64
2023/03/21 21:56:41;;;;;;;7.68;5.15;;;11.60;99.90;;;;;;10431284;28;20459;-64
2023/03/21 22:01:41;;;;;;;10.90;5.78;;;11.60;99.90;;;;;;10427972;28;20083;-63
2023/03/21 22:06:42;;;;;;;10.05;6.13;;;11.60;99.90;;;;;;10431655;28;20024;-64
2023/03/21 22:11:43;;;;;;;9.45;5.45;;;11.60;99.90;;;;;;10426638;28;20161;-64
2023/03/21 22:16:45;;;;;;;10.10;5.97;;;11.50;99.90;;;;;;10429122;28;20036;-63
2023/03/21 22:21:46;;;;;;;10.48;5.75;;;11.50;99.90;;;;;;10425753;28;20147;-64
2023/03/21 22:26:46;;;;;;;9.70;5.30;;;11.50;99.90;;;;;;10425710;28;20649;-64
2023/03/21 22:31:47;;;;;;;11.55;5.55;;;11.50;99.90;;;;;;10431053;28;20033;-64
2023/03/21 22:36:49;;;;;;;9.63;5.50;;;11.50;99.90;;;;;;10434187;28;20512;-64
2023/03/21 22:41:49;;;;;;;10.18;6.25;;;11.50;99.90;;;;;;10434539;28;20102;-64
2023/03/21 22:46:50;;;;;;;9.02;5.95;;;11.50;99.90;;;;;;10420109;28;20183;-63
2023/03/21 22:51:52;;;;;;;9.88;5.38;;;11.50;99.90;;;;;;10427341;28;20132;-68
2023/03/21 22:56:52;;;;;;;10.80;5.88;;;11.50;99.90;;;;;;10432642;28;20028;-65
2023/03/21 23:01:53;;;;;;;9.55;5.70;;;11.50;99.90;;;;;;10429516;28;20021;-63
2023/03/21 23:06:54;;;;;;;9.75;5.57;;;11.50;99.90;;;;;;10434403;28;20033;-65
2023/03/21 23:11:54;;;;;;;7.13;4.50;;;11.50;99.90;;;;;;10432349;28;20392;-65
2023/03/21 23:16:58;;;;;;;8.15;5.35;;;11.50;99.90;;;;;;10420697;28;20576;-65
2023/03/21 23:22:00;;;;;;;7.38;5.13;;;11.40;99.90;;;;;;10426943;28;20044;-65
2023/03/21 23:27:01;;;;;;;8.18;4.93;;;11.40;99.90;;;;;;10428407;28;20021;-65
2023/03/21 23:32:01;;;;;;;8.52;4.47;;;11.40;99.90;;;;;;10437349;28;20036;-65
2023/03/21 23:37:03;;;;;;;7.38;4.53;;;11.50;99.90;;;;;;10424596;28;20040;-64
2023/03/21 23:42:05;;;;;;;6.60;4.40;;;11.40;99.90;;;;;;10429085;28;20017;-65
2023/03/21 23:47:05;;;;;;;8.10;4.70;;;11.40;99.90;;;;;;10427144;28;20151;-64
2023/03/21 23:52:06;;;;;;;7.60;4.28;;;11.40;99.90;;;;;;10426202;28;20054;-65
2023/03/21 23:57:07;;;;;;;6.25;3.75;;;11.40;99.90;;;;;;10427594;28;20645;-65
